Time;durP1;ratioP1;P1;durP2;ratioP2;P2;SDS_P1;SDS_P2;PMS_P1;PMS_P2;Temp;Humidity;BMP_temperature;BMP_pressure;BME280_temperature;BME280_humidity;BME280_pressure;Samples;Min_cycle;Max_cycle;Signal;HPM_P1;HPM_P2
2022/05/09 00:01:45;;;;;;;12.63;6.05;;;;;;;;;;4976051;28;20488;-87
2022/05/09 00:04:12;;;;;;;9.65;6.10;;;;;;;;;;4975483;28;20179;-86
2022/05/09 00:06:39;;;;;;;9.23;6.50;;;;;;;;;;4975691;28;20054;-87
2022/05/09 00:09:07;;;;;;;10.20;6.28;;;;;;;;;;4975636;28;20142;-87
2022/05/09 00:11:34;;;;;;;8.57;6.03;;;;;;;;;;4977302;28;20054;-87
2022/05/09 00:14:01;;;;;;;8.85;5.97;;;;;;;;;;4977376;28;20054;-87
2022/05/09 00:16:33;;;;;;;9.43;6.10;;;;;;;;;;4975568;28;20137;-86
2022/05/09 00:19:05;;;;;;;8.85;5.90;;;;;;;;;;4975178;28;20082;-86
2022/05/09 00:21:33;;;;;;;8.75;5.72;;;;;;;;;;4975285;28;20114;-86
2022/05/09 00:24:00;;;;;;;9.45;5.72;;;;;;;;;;4974895;28;20082;-87
2022/05/09 00:26:31;;;;;;;11.45;6.60;;;;;;;;;;4975191;28;20083;-87
2022/05/09 00:28:58;;;;;;;13.82;7.28;;;;;;;;;;4975137;28;20081;-86
2022/05/09 00:31:26;;;;;;;10.15;6.07;;;;;;;;;;4975135;28;20082;-87
2022/05/09 00:33:53;;;;;;;13.48;7.50;;;;;;;;;;4975026;28;20054;-87
2022/05/09 00:36:21;;;;;;;8.18;6.15;;;;;;;;;;4976259;28;20145;-87
2022/05/09 00:38:50;;;;;;;8.60;6.50;;;;;;;;;;4975023;28;20153;-87
2022/05/09 00:41:37;;;;;;;12.40;6.40;;;;;;;;;;4975088;28;20483;-87
2022/05/09 00:44:07;;;;;;;8.60;5.88;;;;;;;;;;4974529;28;20061;-87
2022/05/09 00:46:34;;;;;;;13.50;6.60;;;;;;;;;;4975029;28;20134;-87
2022/05/09 00:49:22;;;;;;;12.25;6.95;;;;;;;;;;4974827;28;20114;-87
2022/05/09 00:52:04;;;;;;;14.13;6.15;;;;;;;;;;4965698;28;20415;-86
2022/05/09 00:54:36;;;;;;;10.73;6.82;;;;;;;;;;4974866;28;20440;-86
2022/05/09 00:57:07;;;;;;;10.00;6.25;;;;;;;;;;4974985;28;20074;-87
2022/05/09 00:59:35;;;;;;;15.15;6.38;;;;;;;;;;4974707;28;20081;-87
2022/05/09 01:02:02;;;;;;;9.27;6.10;;;;;;;;;;4974610;28;20077;-87
2022/05/09 01:04:33;;;;;;;10.25;6.78;;;;;;;;;;4974385;28;20047;-87
2022/05/09 01:07:00;;;;;;;8.20;5.93;;;;;;;;;;4974356;28;20697;-87
2022/05/09 01:09:28;;;;;;;9.60;6.88;;;;;;;;;;4974852;28;20134;-87
2022/05/09 01:11:55;;;;;;;12.77;7.40;;;;;;;;;;4974277;28;20070;-87
2022/05/09 01:14:25;;;;;;;10.25;6.85;;;;;;;;;;4973977;28;20078;-86
2022/05/09 01:16:56;;;;;;;;;;;;;;;;;;4974755;28;20050;-87
2022/05/09 01:19:27;;;;;;;8.48;5.95;;;;;;;;;;4973967;28;20302;-87
2022/05/09 01:21:55;;;;;;;14.93;6.80;;;;;;;;;;4974263;28;20071;-87
2022/05/09 01:24:23;;;;;;;7.57;6.18;;;;;;;;;;4973869;28;20142;-87
2022/05/09 01:26:50;;;;;;;10.10;6.13;;;;;;;;;;4974051;28;20138;-87
2022/05/09 01:29:22;;;;;;;14.20;6.70;;;;;;;;;;4974281;28;20137;-87
2022/05/09 01:31:50;;;;;;;10.77;6.70;;;;;;;;;;4974176;28;20507;-87
2022/05/09 01:34:19;;;;;;;10.55;6.40;;;;;;;;;;4973757;28;20410;-88
2022/05/09 01:36:50;;;;;;;9.98;6.15;;;;;;;;;;4975075;28;20053;-87
2022/05/09 01:39:17;;;;;;;9.93;6.32;;;;;;;;;;4974922;28;20081;-87
2022/05/09 01:41:47;;;;;;;9.48;6.47;;;;;;;;;;4974566;28;20078;-86
2022/05/09 01:44:15;;;;;;;13.98;6.65;;;;;;;;;;4973558;28;20085;-87
2022/05/09 01:49:31;;;;;;;7.40;5.78;;;;;;;;;;4982906;28;20566;-87
2022/05/09 01:52:00;;;;;;;8.70;5.85;;;;;;;;;;4977290;28;20081;-87
2022/05/09 01:54:28;;;;;;;10.05;6.05;;;;;;;;;;4976869;28;20069;-87
2022/05/09 01:56:55;;;;;;;9.00;6.22;;;;;;;;;;4977083;28;20576;-88
2022/05/09 01:59:23;;;;;;;7.68;5.57;;;;;;;;;;4977204;28;20144;-87
2022/05/09 02:01:52;;;;;;;11.20;6.63;;;;;;;;;;4977245;28;20192;-87
2022/05/09 02:04:20;;;;;;;10.07;6.07;;;;;;;;;;4976124;28;20432;-87
2022/05/09 02:06:47;;;;;;;7.57;6.38;;;;;;;;;;4976701;28;20502;-87
2022/05/09 02:09:15;;;;;;;15.05;7.35;;;;;;;;;;4976584;28;20126;-87
2022/05/09 02:11:42;;;;;;;10.57;6.63;;;;;;;;;;4976849;28;20581;-87
2022/05/09 02:14:10;;;;;;;11.80;6.10;;;;;;;;;;4976409;28;20141;-87
2022/05/09 02:16:37;;;;;;;9.75;6.40;;;;;;;;;;4994012;28;20133;-87
2022/05/09 02:19:06;;;;;;;8.95;5.88;;;;;;;;;;4976540;28;20050;-87
2022/05/09 02:21:34;;;;;;;16.05;6.47;;;;;;;;;;4976705;28;20046;-87
2022/05/09 02:24:02;;;;;;;8.15;5.63;;;;;;;;;;4993079;28;20078;-87
2022/05/09 02:26:30;;;;;;;10.82;6.57;;;;;;;;;;4976873;28;20418;-87
2022/05/09 02:28:57;;;;;;;11.43;6.38;;;;;;;;;;4976959;28;20082;-87
2022/05/09 02:31:26;;;;;;;7.63;6.30;;;;;;;;;;4976770;28;20077;-87
2022/05/09 02:33:53;;;;;;;9.07;5.80;;;;;;;;;;4976487;28;20054;-87
2022/05/09 02:36:20;;;;;;;9.40;5.63;;;;;;;;;;4976426;28;20054;-87
2022/05/09 02:38:48;;;;;;;9.70;6.32;;;;;;;;;;4976347;28;20089;-87
2022/05/09 02:41:15;;;;;;;10.15;6.43;;;;;;;;;;4976426;28;20081;-86
2022/05/09 02:43:42;;;;;;;9.52;6.10;;;;;;;;;;4976589;28;20050;-87
2022/05/09 02:46:10;;;;;;;9.18;6.53;;;;;;;;;;4976431;28;20065;-87
2022/05/09 02:48:38;;;;;;;12.23;6.43;;;;;;;;;;4976492;28;20050;-87
2022/05/09 02:51:06;;;;;;;18.10;7.07;;;;;;;;;;4977145;28;20050;-87
2022/05/09 02:53:35;;;;;;;10.73;6.20;;;;;;;;;;4981335;28;20070;-87
2022/05/09 02:56:03;;;;;;;10.10;6.45;;;;;;;;;;4980063;28;20141;-87
2022/05/09 02:58:30;;;;;;;10.98;6.45;;;;;;;;;;4980578;28;20142;-87
2022/05/09 03:00:57;;;;;;;12.75;6.35;;;;;;;;;;4980186;28;20085;-87
2022/05/09 03:06:10;;;;;;;8.27;5.70;;;;;;;;;;4996709;28;20510;-87
2022/05/09 03:08:38;;;;;;;12.82;6.97;;;;;;;;;;4979942;28;20081;-87
2022/05/09 03:11:05;;;;;;;12.52;6.95;;;;;;;;;;4980064;28;20050;-87
2022/05/09 03:13:34;;;;;;;7.03;5.70;;;;;;;;;;4979944;28;20133;-87
2022/05/09 03:16:02;;;;;;;10.50;6.50;;;;;;;;;;4979762;28;20077;-87
2022/05/09 03:18:29;;;;;;;6.60;6.00;;;;;;;;;;4979677;28;20066;-87
2022/05/09 03:20:56;;;;;;;11.05;6.55;;;;;;;;;;4979876;28;20042;-87
2022/05/09 03:23:24;;;;;;;9.75;6.75;;;;;;;;;;4979644;28;20072;-87
2022/05/09 03:25:51;;;;;;;13.05;6.63;;;;;;;;;;4979195;28;20058;-87
2022/05/09 03:28:21;;;;;;;13.88;6.82;;;;;;;;;;4979163;28;20617;-87
2022/05/09 03:30:50;;;;;;;9.75;7.63;;;;;;;;;;4979170;28;20050;-86
2022/05/09 03:33:17;;;;;;;13.45;7.50;;;;;;;;;;4979542;28;20047;-87
2022/05/09 03:35:44;;;;;;;16.92;7.32;;;;;;;;;;4979532;28;20084;-87
2022/05/09 03:38:12;;;;;;;10.13;6.30;;;;;;;;;;4979564;28;20085;-87
2022/05/09 03:40:40;;;;;;;7.90;6.68;;;;;;;;;;4996825;28;20538;-86
2022/05/09 03:43:07;;;;;;;15.85;11.25;;;;;;;;;;4978818;28;20153;-87
2022/05/09 03:45:36;;;;;;;16.70;11.38;;;;;;;;;;4979632;28;20133;-87
2022/05/09 03:48:03;;;;;;;17.75;10.23;;;;;;;;;;4979484;28;20076;-87
2022/05/09 03:50:30;;;;;;;11.95;8.07;;;;;;;;;;4979254;28;20137;-87
2022/05/09 03:52:58;;;;;;;12.52;7.22;;;;;;;;;;4979405;28;20070;-86
2022/05/09 03:55:25;;;;;;;12.80;8.50;;;;;;;;;;4979006;28;20050;-87
2022/05/09 03:57:54;;;;;;;17.95;14.48;;;;;;;;;;4979046;28;20058;-87
2022/05/09 04:00:23;;;;;;;15.10;9.77;;;;;;;;;;4996429;28;20085;-87
2022/05/09 04:02:50;;;;;;;20.88;10.57;;;;;;;;;;4978223;28;20129;-87
2022/05/09 04:05:17;;;;;;;16.70;10.23;;;;;;;;;;4978886;28;20078;-87
2022/05/09 04:07:46;;;;;;;16.73;9.40;;;;;;;;;;4978864;28;20047;-88
2022/05/09 04:10:14;;;;;;;9.73;7.72;;;;;;;;;;4978594;28;20137;-87
2022/05/09 04:12:41;;;;;;;18.88;9.35;;;;;;;;;;4978734;28;20474;-87
2022/05/09 04:17:56;;;;;;;18.42;11.63;;;;;;;;;;4996204;28;20563;-87
2022/05/09 04:20:24;;;;;;;20.15;11.82;;;;;;;;;;4978484;28;20085;-86
2022/05/09 04:22:52;;;;;;;18.40;10.63;;;;;;;;;;4995232;28;20051;-87
2022/05/09 04:25:19;;;;;;;18.67;9.98;;;;;;;;;;4978719;28;20491;-86
2022/05/09 04:27:47;;;;;;;13.98;9.35;;;;;;;;;;4978642;28;20137;-86
2022/05/09 04:30:17;;;;;;;15.15;8.15;;;;;;;;;;4978715;28;20084;-87
2022/05/09 04:32:44;;;;;;;11.80;7.75;;;;;;;;;;4978535;28;20109;-87
2022/05/09 04:35:22;;;;;;;9.98;7.35;;;;;;;;;;4977477;28;20149;-87
2022/05/09 04:37:52;;;;;;;15.73;8.48;;;;;;;;;;4978474;28;20077;-87
2022/05/09 04:40:20;;;;;;;13.77;7.90;;;;;;;;;;4978717;28;20848;-87
2022/05/09 04:42:48;;;;;;;12.57;8.43;;;;;;;;;;4978033;28;20462;-87
2022/05/09 04:45:15;;;;;;;19.35;10.35;;;;;;;;;;4977897;28;20085;-87
2022/05/09 04:47:45;;;;;;;15.70;9.20;;;;;;;;;;4978250;28;20070;-87
2022/05/09 04:50:14;;;;;;;14.45;9.50;;;;;;;;;;4977754;28;20081;-88
2022/05/09 04:52:42;;;;;;;25.45;9.60;;;;;;;;;;4978277;28;20074;-87
2022/05/09 04:55:09;;;;;;;29.35;10.27;;;;;;;;;;4977636;28;20056;-87
2022/05/09 04:57:36;;;;;;;61.90;13.20;;;;;;;;;;4994972;28;20473;-86
2022/05/09 05:00:05;;;;;;;40.90;12.23;;;;;;;;;;4977543;28;20050;-86
2022/05/09 05:02:33;;;;;;;50.90;14.82;;;;;;;;;;4977795;28;20133;-86
2022/05/09 05:05:00;;;;;;;23.15;14.13;;;;;;;;;;4977724;28;20055;-86
2022/05/09 05:07:28;;;;;;;34.75;16.67;;;;;;;;;;4977969;28;20056;-86
2022/05/09 05:09:55;;;;;;;33.38;19.35;;;;;;;;;;4974615;28;20137;-86
2022/05/09 05:12:23;;;;;;;41.28;20.00;;;;;;;;;;4968590;28;20070;-85
2022/05/09 05:14:50;;;;;;;31.70;21.33;;;;;;;;;;4966311;28;20503;-86
2022/05/09 05:17:18;;;;;;;24.50;17.13;;;;;;;;;;4966544;28;20049;-86
2022/05/09 05:19:48;;;;;;;16.42;10.10;;;;;;;;;;4963221;28;20243;-86
2022/05/09 05:22:16;;;;;;;7.97;7.05;;;;;;;;;;4957947;28;20101;-86
2022/05/09 05:24:44;;;;;;;8.48;4.70;;;;;;;;;;4957462;28;20133;-86
2022/05/09 05:27:12;;;;;;;11.95;3.75;;;;;;;;;;4957774;28;20129;-86
2022/05/09 05:29:41;;;;;;;6.20;3.45;;;;;;;;;;4958228;28;20055;-86
2022/05/09 05:32:19;;;;;;;3.60;2.80;;;;;;;;;;4974995;28;20050;-86
2022/05/09 05:34:47;;;;;;;4.53;2.80;;;;;;;;;;4957673;28;20137;-86
2022/05/09 05:37:15;;;;;;;2.80;2.22;;;;;;;;;;4975045;28;20129;-86
2022/05/09 05:39:44;;;;;;;10.68;2.55;;;;;;;;;;4957480;28;20051;-86
2022/05/09 05:42:11;;;;;;;4.30;2.35;;;;;;;;;;4957796;28;20061;-86
2022/05/09 05:44:39;;;;;;;2.45;1.77;;;;;;;;;;4974697;28;20506;-86
2022/05/09 05:47:10;;;;;;;4.75;2.00;;;;;;;;;;4957748;28;20059;-86
2022/05/09 05:49:38;;;;;;;5.28;2.00;;;;;;;;;;4974418;28;20064;-85
2022/05/09 05:52:06;;;;;;;4.47;1.75;;;;;;;;;;4957573;28;20054;-86
2022/05/09 05:54:35;;;;;;;8.93;2.25;;;;;;;;;;4956542;28;20504;-85
2022/05/09 05:57:03;;;;;;;7.35;2.30;;;;;;;;;;4957273;28;20074;-85
2022/05/09 05:59:30;;;;;;;6.25;2.00;;;;;;;;;;4957510;28;20142;-86
2022/05/09 06:01:57;;;;;;;5.18;3.05;;;;;;;;;;4962896;28;20101;-85
2022/05/09 06:04:25;;;;;;;7.22;2.72;;;;;;;;;;4976993;28;20097;-86
2022/05/09 06:06:52;;;;;;;7.68;3.15;;;;;;;;;;4974231;28;20505;-86
2022/05/09 06:09:19;;;;;;;8.18;3.20;;;;;;;;;;4974118;28;20065;-85
2022/05/09 06:11:47;;;;;;;8.63;3.17;;;;;;;;;;4956798;28;20053;-86
2022/05/09 06:14:15;;;;;;;9.02;3.42;;;;;;;;;;4956759;28;20102;-85
2022/05/09 06:16:43;;;;;;;14.63;4.57;;;;;;;;;;4957190;28;20078;-85
2022/05/09 06:19:11;;;;;;;18.63;4.85;;;;;;;;;;4956951;28;20138;-86
2022/05/09 06:21:38;;;;;;;20.08;5.38;;;;;;;;;;4956956;28;20051;-86
2022/05/09 06:24:06;;;;;;;7.45;2.65;;;;;;;;;;4973365;28;20476;-86
2022/05/09 06:26:36;;;;;;;8.00;2.78;;;;;;;;;;4958820;28;20054;-85
2022/05/09 06:29:06;;;;;;;4.10;1.90;;;;;;;;;;4961019;28;20057;-86
2022/05/09 06:31:34;;;;;;;6.20;2.00;;;;;;;;;;4961114;28;20050;-86
2022/05/09 06:34:02;;;;;;;9.85;3.25;;;;;;;;;;4960757;28;20055;-85
2022/05/09 06:36:32;;;;;;;13.27;3.85;;;;;;;;;;4960855;28;20054;-86
2022/05/09 06:39:00;;;;;;;16.55;4.80;;;;;;;;;;4960942;28;20145;-85
2022/05/09 06:41:27;;;;;;;36.50;9.40;;;;;;;;;;4978133;28;20050;-86
2022/05/09 06:43:54;;;;;;;31.42;6.25;;;;;;;;;;4960725;28;20051;-86
2022/05/09 06:46:21;;;;;;;33.25;6.95;;;;;;;;;;4960921;28;20089;-86
2022/05/09 06:48:48;;;;;;;30.05;7.20;;;;;;;;;;4977340;28;20046;-86
2022/05/09 06:51:16;;;;;;;54.35;8.25;;;;;;;;;;4960937;28;20058;-86
2022/05/09 06:53:44;;;;;;;50.63;8.65;;;;;;;;;;4960676;28;20051;-87
2022/05/09 06:56:11;;;;;;;40.70;7.45;;;;;;;;;;4960708;28;20054;-87
2022/05/09 06:58:39;;;;;;;29.38;6.43;;;;;;;;;;4977889;28;20047;-86
2022/05/09 07:01:12;;;;;;;27.52;5.78;;;;;;;;;;4960458;28;20235;-86
2022/05/09 07:03:39;;;;;;;;;;;;;;;;;;4961347;28;20070;-86
2022/05/09 07:06:07;;;;;;;35.35;8.05;;;;;;;;;;4984730;28;19922;-86
2022/05/09 07:08:34;;;;;;;46.78;9.35;;;;;;;;;;4997150;28;20074;-87
2022/05/09 07:11:02;;;;;;;22.05;4.85;;;;;;;;;;4979883;28;20133;-86
2022/05/09 07:13:50;;;;;;;10.40;3.08;;;;;;;;;;4982564;28;20061;-86
2022/05/09 07:16:17;;;;;;;14.88;3.28;;;;;;;;;;4979572;28;20501;-85
2022/05/09 07:18:45;;;;;;;12.10;3.08;;;;;;;;;;4979556;28;20137;-87
2022/05/09 07:21:12;;;;;;;11.95;2.83;;;;;;;;;;4979454;28;20046;-86
2022/05/09 07:23:40;;;;;;;8.77;2.55;;;;;;;;;;4979149;28;20050;-87
2022/05/09 07:26:07;;;;;;;5.45;2.15;;;;;;;;;;4995615;28;20515;-86
2022/05/09 07:28:34;;;;;;;9.10;2.22;;;;;;;;;;4994786;28;20145;-86
2022/05/09 07:31:01;;;;;;;3.05;1.70;;;;;;;;;;4963101;28;20117;-87
2022/05/09 07:33:29;;;;;;;4.32;2.15;;;;;;;;;;4960697;28;20074;-86
2022/05/09 07:35:57;;;;;;;4.80;1.70;;;;;;;;;;4959042;28;20141;-87
2022/05/09 07:38:25;;;;;;;3.00;1.88;;;;;;;;;;4959304;28;20077;-88
2022/05/09 07:40:52;;;;;;;4.75;2.00;;;;;;;;;;4959301;28;20054;-87
2022/05/09 07:43:21;;;;;;;11.80;1.90;;;;;;;;;;4960240;28;20077;-88
2022/05/09 07:45:48;;;;;;;9.82;1.90;;;;;;;;;;4976609;28;20054;-86
2022/05/09 07:48:16;;;;;;;8.40;1.80;;;;;;;;;;4960223;28;20471;-87
2022/05/09 07:50:43;;;;;;;5.95;2.08;;;;;;;;;;4959695;28;20146;-87
2022/05/09 07:53:12;;;;;;;5.95;1.75;;;;;;;;;;4959665;28;20145;-86
2022/05/09 07:55:40;;;;;;;8.05;2.05;;;;;;;;;;4976687;28;20142;-87
2022/05/09 07:58:09;;;;;;;5.40;1.52;;;;;;;;;;4976756;28;20150;-87
2022/05/09 08:00:36;;;;;;;3.58;1.60;;;;;;;;;;4976510;28;20114;-86
2022/05/09 08:03:04;;;;;;;3.90;1.75;;;;;;;;;;4959933;28;20090;-86
2022/05/09 08:05:32;;;;;;;4.03;1.52;;;;;;;;;;4958537;28;20051;-87
2022/05/09 08:07:59;;;;;;;3.17;1.55;;;;;;;;;;4959482;28;20058;-86
2022/05/09 08:10:27;;;;;;;3.88;1.50;;;;;;;;;;4959572;28;20055;-87
2022/05/09 08:12:54;;;;;;;4.95;1.63;;;;;;;;;;4966612;28;20050;-86
2022/05/09 08:15:21;;;;;;;4.80;1.65;;;;;;;;;;4960638;28;20058;-87
2022/05/09 08:17:49;;;;;;;5.05;1.50;;;;;;;;;;4959338;28;20082;-86
2022/05/09 08:20:17;;;;;;;3.17;1.35;;;;;;;;;;4959371;28;20058;-86
2022/05/09 08:22:45;;;;;;;5.05;1.50;;;;;;;;;;4958798;28;20078;-87
2022/05/09 08:25:14;;;;;;;3.10;1.50;;;;;;;;;;4959047;28;20055;-87
2022/05/09 08:27:42;;;;;;;3.90;1.63;;;;;;;;;;4959140;28;20150;-86
2022/05/09 08:30:10;;;;;;;3.22;1.35;;;;;;;;;;4976379;28;20451;-87
2022/05/09 08:32:42;;;;;;;5.80;1.50;;;;;;;;;;4976176;28;20058;-89
2022/05/09 08:35:10;;;;;;;6.03;1.92;;;;;;;;;;4958560;28;20089;-87
2022/05/09 08:37:37;;;;;;;4.25;1.50;;;;;;;;;;4976008;28;20058;-88
2022/05/09 08:40:05;;;;;;;4.28;1.25;;;;;;;;;;4958871;28;20069;-87
2022/05/09 08:42:32;;;;;;;5.00;1.25;;;;;;;;;;4958589;28;20138;-90
2022/05/09 08:45:08;;;;;;;4.25;1.20;;;;;;;;;;4976704;28;20047;-87
2022/05/09 08:47:49;;;;;;;3.75;1.38;;;;;;;;;;4959612;28;20043;-87
2022/05/09 08:50:16;;;;;;;2.22;1.10;;;;;;;;;;4975906;28;20057;-87
2022/05/09 08:52:49;;;;;;;3.08;0.98;;;;;;;;;;4975691;28;20055;-87
2022/05/09 08:55:19;;;;;;;3.23;0.93;;;;;;;;;;4958613;28;20061;-86
2022/05/09 08:57:54;;;;;;;4.50;1.27;;;;;;;;;;4975451;28;20406;-87
2022/05/09 09:00:23;;;;;;;5.05;1.50;;;;;;;;;;4975711;28;20046;-88
2022/05/09 09:03:02;;;;;;;7.53;1.40;;;;;;;;;;4975447;28;20102;-88
2022/05/09 09:05:37;;;;;;;3.05;1.00;;;;;;;;;;4958259;28;20050;-87
2022/05/09 09:08:07;;;;;;;3.88;1.23;;;;;;;;;;4958071;28;20137;-87
2022/05/09 09:10:40;;;;;;;5.10;1.30;;;;;;;;;;4958306;28;20101;-87
2022/05/09 09:13:19;;;;;;;1.88;1.08;;;;;;;;;;4958161;28;20064;-87
2022/05/09 09:15:49;;;;;;;5.18;1.35;;;;;;;;;;4957914;28;20133;-89
2022/05/09 09:18:24;;;;;;;5.80;1.30;;;;;;;;;;4958263;28;20631;-89
2022/05/09 09:21:02;;;;;;;4.05;1.70;;;;;;;;;;4958160;28;20170;-91
2022/05/09 09:23:44;;;;;;;5.07;1.67;;;;;;;;;;4975758;28;20055;-88
2022/05/09 09:26:20;;;;;;;5.25;1.77;;;;;;;;;;4975041;28;20050;-87
2022/05/09 09:28:49;;;;;;;5.78;1.92;;;;;;;;;;4958372;28;20090;-89
2022/05/09 09:31:21;;;;;;;6.90;1.92;;;;;;;;;;4958079;28;20062;-87
2022/05/09 09:33:54;;;;;;;5.13;2.17;;;;;;;;;;4942666;28;20053;-87
2022/05/09 09:36:23;;;;;;;5.70;2.30;;;;;;;;;;4958052;28;20051;-90
2022/05/09 09:38:55;;;;;;;3.35;1.58;;;;;;;;;;4975182;28;20046;-92
2022/05/09 09:41:25;;;;;;;8.93;2.00;;;;;;;;;;4958387;28;20137;-90
2022/05/09 09:43:58;;;;;;;8.45;2.13;;;;;;;;;;4975257;28;20415;-88
2022/05/09 09:46:25;;;;;;;10.57;2.20;;;;;;;;;;4968982;28;20047;-89
2022/05/09 09:49:05;;;;;;;9.77;2.17;;;;;;;;;;4963558;28;20089;-88
2022/05/09 09:51:43;;;;;;;9.95;2.13;;;;;;;;;;4958189;28;20133;-89
2022/05/09 09:54:11;;;;;;;3.92;2.00;;;;;;;;;;4957962;28;20057;-89
2022/05/09 09:56:38;;;;;;;3.85;2.20;;;;;;;;;;4957919;28;20570;-90
2022/05/09 09:59:09;;;;;;;2.97;1.88;;;;;;;;;;4957929;28;20074;-87
2022/05/09 10:01:36;;;;;;;5.88;1.92;;;;;;;;;;4974180;28;20086;-89
2022/05/09 10:04:10;;;;;;;7.65;2.13;;;;;;;;;;4974626;28;20085;-85
2022/05/09 10:06:56;;;;;;;4.60;1.70;;;;;;;;;;4957412;28;20759;-90
2022/05/09 10:09:23;;;;;;;3.40;1.70;;;;;;;;;;4957666;28;20086;-88
2022/05/09 10:11:50;;;;;;;2.70;1.40;;;;;;;;;;4957790;28;20153;-87
2022/05/09 10:14:34;;;;;;;3.85;1.48;;;;;;;;;;4957429;28;20051;-89
2022/05/09 10:17:14;;;;;;;4.70;1.58;;;;;;;;;;4957419;28;20110;-88
2022/05/09 10:19:41;;;;;;;2.65;1.27;;;;;;;;;;4957408;28;20078;-87
2022/05/09 10:25:05;;;;;;;5.47;1.70;;;;;;;;;;4974270;28;20043;-88
2022/05/09 10:27:33;;;;;;;3.53;1.33;;;;;;;;;;4973771;28;20054;-88
2022/05/09 10:30:02;;;;;;;4.55;1.48;;;;;;;;;;4957544;28;20090;-88
2022/05/09 10:32:46;;;;;;;4.47;1.60;;;;;;;;;;4957462;28;20043;-87
2022/05/09 10:35:19;;;;;;;4.00;1.20;;;;;;;;;;4957221;28;20436;-86
2022/05/09 10:37:59;;;;;;;5.13;1.63;;;;;;;;;;4955461;28;20082;-89
2022/05/09 10:40:30;;;;;;;2.00;1.48;;;;;;;;;;4973897;28;20406;-87
2022/05/09 10:43:01;;;;;;;9.88;2.10;;;;;;;;;;4973776;28;20074;-86
2022/05/09 10:45:30;;;;;;;4.82;1.77;;;;;;;;;;4956623;28;20058;-87
2022/05/09 10:48:02;;;;;;;8.45;1.75;;;;;;;;;;4956478;28;20114;-88
2022/05/09 10:50:35;;;;;;;5.43;1.80;;;;;;;;;;4953222;29;20111;-87
2022/05/09 10:53:06;;;;;;;;;;;;;;;;;;4954629;28;20118;-87
2022/05/09 10:55:40;;;;;;;5.45;1.88;;;;;;;;;;4954315;28;19922;-87
2022/05/09 10:58:20;;;;;;;3.70;1.63;;;;;;;;;;4953871;29;20142;-88
2022/05/09 11:00:52;;;;;;;3.65;1.60;;;;;;;;;;4952927;28;20058;-87
2022/05/09 11:03:27;;;;;;;3.60;1.63;;;;;;;;;;4953540;29;20051;-88
2022/05/09 11:06:13;;;;;;;5.60;1.67;;;;;;;;;;4952860;29;20058;-88
2022/05/09 11:08:46;;;;;;;5.30;1.45;;;;;;;;;;4953603;29;20075;-88
2022/05/09 11:11:25;;;;;;;6.70;1.60;;;;;;;;;;4953231;28;20075;-88
2022/05/09 11:13:59;;;;;;;3.65;1.30;;;;;;;;;;4956459;28;20118;-87
2022/05/09 11:16:26;;;;;;;;;;;;;;;;;;4958146;28;20138;-87
2022/05/09 11:19:05;;;;;;;2.00;1.20;;;;;;;;;;4956528;29;19922;-87
2022/05/09 11:21:41;;;;;;;2.67;1.45;;;;;;;;;;4956485;29;20054;-87
2022/05/09 11:24:27;;;;;;;5.97;1.88;;;;;;;;;;4957770;29;20131;-86
2022/05/09 11:26:57;;;;;;;7.25;2.92;;;;;;;;;;4955907;29;20130;-88
2022/05/09 11:29:43;;;;;;;12.57;2.13;;;;;;;;;;4956527;29;20126;-91
2022/05/09 11:32:29;;;;;;;3.72;1.15;;;;;;;;;;4957084;29;20101;-90
2022/05/09 11:35:21;;;;;;;5.50;1.80;;;;;;;;;;4957258;28;20103;-89
2022/05/09 11:37:54;;;;;;;1.80;1.10;;;;;;;;;;4947927;29;20169;-85
2022/05/09 11:40:32;;;;;;;6.15;1.50;;;;;;;;;;4956693;29;20138;-87
2022/05/09 11:43:29;;;;;;;3.60;1.52;;;;;;;;;;4956868;28;20071;-87
2022/05/09 11:46:15;;;;;;;2.17;1.45;;;;;;;;;;4956811;29;20496;-88
2022/05/09 11:48:53;;;;;;;3.03;1.48;;;;;;;;;;4958894;28;20055;-88
2022/05/09 11:51:21;;;;;;;4.57;1.60;;;;;;;;;;4959948;28;20074;-86
2022/05/09 11:53:51;;;;;;;1.92;1.40;;;;;;;;;;4959596;28;20058;-87
2022/05/09 11:56:18;;;;;;;6.30;2.00;;;;;;;;;;4959623;28;20081;-87
2022/05/09 11:58:46;;;;;;;4.05;1.20;;;;;;;;;;4976594;28;20051;-86
2022/05/09 12:01:13;;;;;;;7.78;1.40;;;;;;;;;;4959387;28;20511;-88
2022/05/09 12:03:40;;;;;;;5.97;1.60;;;;;;;;;;4961520;28;20047;-88
2022/05/09 12:06:27;;;;;;;2.65;1.48;;;;;;;;;;4960331;28;20499;-87
2022/05/09 12:09:04;;;;;;;5.22;1.30;;;;;;;;;;4960077;28;20078;-89
2022/05/09 12:11:45;;;;;;;2.30;1.40;;;;;;;;;;4959056;28;20238;-87
2022/05/09 12:14:33;;;;;;;4.72;1.30;;;;;;;;;;4959224;28;20487;-88
2022/05/09 12:17:00;;;;;;;4.80;1.60;;;;;;;;;;4959509;28;20055;-86
2022/05/09 12:19:31;;;;;;;5.63;1.48;;;;;;;;;;4959403;28;20506;-88
2022/05/09 12:22:17;;;;;;;4.00;1.63;;;;;;;;;;4959063;28;20529;-86
2022/05/09 12:24:44;;;;;;;6.85;1.63;;;;;;;;;;4958400;28;20050;-87
2022/05/09 12:27:30;;;;;;;3.35;1.80;;;;;;;;;;4958912;28;20047;-86
2022/05/09 12:29:58;;;;;;;1.52;1.02;;;;;;;;;;4976072;28;20055;-86
2022/05/09 12:32:25;;;;;;;3.45;1.50;;;;;;;;;;4975294;28;20133;-86
2022/05/09 12:34:53;;;;;;;5.22;1.50;;;;;;;;;;4975985;28;20495;-87
2022/05/09 12:37:46;;;;;;;7.88;1.80;;;;;;;;;;4961679;28;20133;-87
2022/05/09 12:40:20;;;;;;;4.72;1.63;;;;;;;;;;4975895;28;20102;-86
2022/05/09 12:42:48;;;;;;;6.03;1.40;;;;;;;;;;4975630;28;20555;-86
2022/05/09 12:45:18;;;;;;;3.13;1.60;;;;;;;;;;4975545;28;20505;-86
2022/05/09 12:47:47;;;;;;;3.13;1.52;;;;;;;;;;4958557;28;20074;-87
2022/05/09 12:50:16;;;;;;;8.30;1.30;;;;;;;;;;4975541;28;20467;-86
2022/05/09 12:52:49;;;;;;;3.40;1.40;;;;;;;;;;4958662;28;20133;-87
2022/05/09 12:58:19;;;;;;;4.68;1.45;;;;;;;;;;4975450;28;20090;-85
2022/05/09 13:00:48;;;;;;;3.20;1.58;;;;;;;;;;4958879;28;20050;-86
2022/05/09 13:03:46;;;;;;;9.60;1.90;;;;;;;;;;4960629;28;20500;-87
2022/05/09 13:06:15;;;;;;;6.22;1.70;;;;;;;;;;4975149;28;20507;-86
2022/05/09 13:08:42;;;;;;;4.22;1.45;;;;;;;;;;4958329;28;20054;-88
2022/05/09 13:11:15;;;;;;;2.47;1.30;;;;;;;;;;4975258;28;20089;-86
2022/05/09 13:14:02;;;;;;;3.88;1.30;;;;;;;;;;4958382;28;20090;-87
2022/05/09 13:16:32;;;;;;;4.07;1.20;;;;;;;;;;4975201;28;20076;-87
2022/05/09 13:19:00;;;;;;;5.25;1.23;;;;;;;;;;4958326;28;20411;-88
2022/05/09 13:21:32;;;;;;;3.05;1.30;;;;;;;;;;4975491;28;20086;-87
2022/05/09 13:24:03;;;;;;;6.72;1.38;;;;;;;;;;4975157;28;20059;-85
2022/05/09 13:26:31;;;;;;;10.80;1.50;;;;;;;;;;4957781;28;20174;-87
2022/05/09 13:29:08;;;;;;;5.03;1.30;;;;;;;;;;4957873;28;20106;-86
2022/05/09 13:31:41;;;;;;;4.40;1.48;;;;;;;;;;4975145;28;20054;-86
2022/05/09 13:34:21;;;;;;;10.00;1.73;;;;;;;;;;4957745;28;20470;-86
2022/05/09 13:36:48;;;;;;;4.03;1.52;;;;;;;;;;4974100;28;20046;-87
2022/05/09 13:39:30;;;;;;;8.10;1.58;;;;;;;;;;4975030;28;20129;-86
2022/05/09 13:41:58;;;;;;;3.72;1.38;;;;;;;;;;4958226;28;20060;-87
2022/05/09 13:44:26;;;;;;;4.90;1.58;;;;;;;;;;4958029;28;20085;-86
2022/05/09 13:46:55;;;;;;;1.38;1.20;;;;;;;;;;4957799;28;20054;-86
2022/05/09 13:49:23;;;;;;;1.50;1.20;;;;;;;;;;4974702;28;20050;-87
2022/05/09 13:51:59;;;;;;;3.33;1.40;;;;;;;;;;4974765;28;20090;-87
2022/05/09 13:54:27;;;;;;;2.25;1.33;;;;;;;;;;4974594;28;20500;-87
2022/05/09 13:57:14;;;;;;;1.67;1.27;;;;;;;;;;4957300;28;20504;-86
2022/05/09 13:59:45;;;;;;;2.15;1.25;;;;;;;;;;4974838;28;20418;-86
2022/05/09 14:02:14;;;;;;;5.85;1.25;;;;;;;;;;4974379;28;20385;-86
2022/05/09 14:04:42;;;;;;;1.90;1.50;;;;;;;;;;4957307;28;20061;-87
2022/05/09 14:10:02;;;;;;;3.95;1.30;;;;;;;;;;4974387;28;20097;-86
2022/05/09 14:12:30;;;;;;;2.58;1.45;;;;;;;;;;4958626;28;20451;-87
2022/05/09 14:15:03;;;;;;;4.20;1.52;;;;;;;;;;4960971;28;20086;-86
2022/05/09 14:17:31;;;;;;;;;;;;;;;;;;4983291;28;20062;-87
2022/05/09 14:20:00;;;;;;;3.25;1.20;;;;;;;;;;4984131;28;19922;-87
2022/05/09 14:22:29;;;;;;;1.83;1.25;;;;;;;;;;4963729;28;20459;-87
2022/05/09 14:30:40;;;;;;;4.10;1.63;;;;;;;;;;4974279;28;20133;-87
2022/05/09 14:33:27;;;;;;;1.52;1.17;;;;;;;;;;4956526;28;20141;-87
2022/05/09 14:35:56;;;;;;;4.93;1.27;;;;;;;;;;4957087;28;20137;-85
2022/05/09 14:38:36;;;;;;;5.20;1.30;;;;;;;;;;4957037;28;20511;-88
2022/05/09 14:41:37;;;;;;;1.17;1.00;;;;;;;;;;4957242;28;20046;-86
2022/05/09 14:44:18;;;;;;;6.63;1.45;;;;;;;;;;4957033;28;20506;-87
2022/05/09 14:46:53;;;;;;;6.20;2.22;;;;;;;;;;4957093;28;20082;-86
2022/05/09 14:49:42;;;;;;;2.92;1.70;;;;;;;;;;4957095;28;20062;-87
2022/05/09 14:52:27;;;;;;;2.42;1.30;;;;;;;;;;4958530;28;20438;-87
2022/05/09 14:58:01;;;;;;;4.45;1.42;;;;;;;;;;4958182;28;20083;-87
2022/05/09 15:00:32;;;;;;;3.22;1.38;;;;;;;;;;4957100;29;20057;-86
2022/05/09 15:03:01;;;;;;;1.50;1.15;;;;;;;;;;4958236;28;20094;-87
2022/05/09 15:05:29;;;;;;;5.90;1.50;;;;;;;;;;4957221;29;20078;-88
2022/05/09 15:07:57;;;;;;;3.17;2.15;;;;;;;;;;4957174;29;20047;-86
2022/05/09 15:10:26;;;;;;;2.75;1.50;;;;;;;;;;4957208;29;20082;-87
2022/05/09 15:12:55;;;;;;;4.97;1.58;;;;;;;;;;4958022;29;20059;-86
2022/05/09 15:15:23;;;;;;;12.90;1.80;;;;;;;;;;4957912;29;20133;-86
2022/05/09 15:17:50;;;;;;;4.20;1.70;;;;;;;;;;4957493;28;20051;-86
2022/05/09 15:20:17;;;;;;;7.38;1.92;;;;;;;;;;4956659;29;20484;-86
2022/05/09 15:22:44;;;;;;;3.90;1.40;;;;;;;;;;4956998;29;20102;-87
2022/05/09 15:25:11;;;;;;;5.43;1.67;;;;;;;;;;4956407;29;20287;-87
2022/05/09 15:27:40;;;;;;;2.53;1.20;;;;;;;;;;4957852;28;20065;-87